createdAt,value
2022-10-06T00:00:37.128Z,102122.52
2022-10-06T00:01:39.211Z,102128.60
2022-10-06T00:02:41.350Z,102121.61
2022-10-06T00:03:43.382Z,102123.34
2022-10-06T00:04:45.333Z,102127.69
2022-10-06T00:05:47.310Z,102125.95
2022-10-06T00:06:49.246Z,102121.61
2022-10-06T00:07:51.201Z,102119.00
2022-10-06T00:08:53.145Z,102126.86
2022-10-06T00:09:55.094Z,102121.66
2022-10-06T00:10:57.149Z,102129.47
2022-10-06T00:11:59.100Z,102128.67
2022-10-06T00:13:01.048Z,102123.47
2022-10-06T00:14:03.008Z,102126.98
2022-10-06T00:15:04.945Z,102124.34
2022-10-06T00:16:07.469Z,102125.24
2022-10-06T00:17:10.836Z,102125.24
2022-10-06T00:18:12.772Z,102121.73
2022-10-06T00:19:14.732Z,102119.95
2022-10-06T00:20:16.980Z,102123.47
2022-10-06T00:21:18.974Z,102124.34
2022-10-06T00:22:20.923Z,102125.24
2022-10-06T00:23:22.863Z,102126.98
2022-10-06T00:24:24.811Z,102127.03
2022-10-06T00:25:26.753Z,102126.20
2022-10-06T00:26:28.769Z,102122.77
2022-10-06T00:27:30.707Z,102123.64
2022-10-06T00:28:33.308Z,102121.03
2022-10-06T00:29:35.524Z,102129.68
2022-10-06T00:30:37.804Z,102126.20
2022-10-06T00:31:39.788Z,102123.59
2022-10-06T00:32:41.763Z,102127.98
2022-10-06T00:33:43.711Z,102128.85
2022-10-06T00:34:45.648Z,102120.16
2022-10-06T00:35:47.603Z,102123.64
2022-10-06T00:36:49.589Z,102121.03
2022-10-06T00:37:51.539Z,102121.03
2022-10-06T00:38:53.498Z,102117.51
2022-10-06T00:39:56.079Z,102122.77
2022-10-06T00:40:58.045Z,102114.91
2022-10-06T00:42:00.496Z,102119.20
2022-10-06T00:43:02.427Z,102120.11
2022-10-06T00:44:04.375Z,102113.16
2022-10-06T00:45:06.336Z,102119.25
2022-10-06T00:46:08.419Z,102117.55
2022-10-06T00:47:11.554Z,102114.91
2022-10-06T00:48:13.517Z,102110.56
2022-10-06T00:49:15.488Z,102104.47
2022-10-06T00:50:18.039Z,102114.91
2022-10-06T00:51:19.978Z,102118.37
2022-10-06T00:52:21.959Z,102112.30
2022-10-06T00:53:23.909Z,102123.59
2022-10-06T00:54:25.875Z,102119.25
2022-10-06T00:55:27.821Z,102115.77
2022-10-06T00:56:29.875Z,102111.39
2022-10-06T00:57:32.151Z,102120.11
2022-10-06T00:58:34.091Z,102121.81
2022-10-06T00:59:36.257Z,102127.94
2022-10-06T01:00:38.297Z,102122.72
2022-10-06T01:01:40.723Z,102115.73
2022-10-06T01:02:42.778Z,102115.73
2022-10-06T01:03:44.787Z,102118.42
2022-10-06T01:04:46.741Z,102121.03
2022-10-06T01:05:48.694Z,102121.03
2022-10-06T01:06:50.644Z,102122.81
2022-10-06T01:07:52.621Z,102114.94
2022-10-06T01:08:54.577Z,102116.64
2022-10-06T01:09:56.526Z,102115.77
2022-10-06T01:10:58.481Z,102114.91
2022-10-06T01:12:00.432Z,102121.81
2022-10-06T01:13:02.415Z,102123.55
2022-10-06T01:14:04.390Z,102121.77
2022-10-06T01:15:06.333Z,102126.98
2022-10-06T01:16:08.558Z,102126.98
2022-10-06T01:17:10.527Z,102131.33
2022-10-06T01:18:12.512Z,102138.32
2022-10-06T01:19:14.464Z,102134.80
2022-10-06T01:20:16.513Z,102125.28
2022-10-06T01:21:18.476Z,102133.94
2022-10-06T01:22:20.417Z,102133.94
2022-10-06T01:23:22.406Z,102128.67
2022-10-06T01:24:24.357Z,102128.67
2022-10-06T01:25:26.295Z,102134.69
2022-10-06T01:26:28.349Z,102126.86
2022-10-06T01:27:30.292Z,102129.47
2022-10-06T01:28:33.144Z,102129.42
2022-10-06T01:29:35.314Z,102132.94
2022-10-06T01:30:37.365Z,102130.34
2022-10-06T01:31:39.322Z,102131.16
2022-10-06T01:32:41.284Z,102136.38
2022-10-06T01:33:43.267Z,102138.98
2022-10-06T01:34:45.230Z,102131.99
2022-10-06T01:35:47.182Z,102137.20
2022-10-06T01:36:49.330Z,102134.55
2022-10-06T01:37:51.283Z,102137.16
2022-10-06T01:38:53.276Z,102141.50
2022-10-06T01:39:55.220Z,102138.02
2022-10-06T01:40:57.172Z,102134.51
2022-10-06T01:41:59.110Z,102132.77
2022-10-06T01:43:01.052Z,102133.59
2022-10-06T01:44:03.110Z,102133.55
2022-10-06T01:45:05.072Z,102132.72
2022-10-06T01:46:07.693Z,102134.38
2022-10-06T01:47:09.777Z,102127.42
2022-10-06T01:48:11.722Z,102136.94
2022-10-06T01:49:13.703Z,102132.63
2022-10-06T01:50:16.060Z,102129.12
2022-10-06T01:51:18.010Z,102130.85
2022-10-06T01:52:19.962Z,102129.08
2022-10-06T01:53:21.902Z,102130.80
2022-10-06T01:54:23.892Z,102128.20
2022-10-06T01:55:25.837Z,102123.81
2022-10-06T01:56:27.794Z,102119.47
2022-10-06T01:57:29.746Z,102125.55
2022-10-06T01:58:32.039Z,102123.77
2022-10-06T01:59:34.852Z,102117.69
2022-10-06T02:00:37.075Z,102119.39
2022-10-06T02:01:39.098Z,102119.39
2022-10-06T02:02:41.008Z,102115.91
2022-10-06T02:03:42.937Z,102121.13
2022-10-06T02:04:44.895Z,102121.13
2022-10-06T02:05:46.819Z,102118.52
2022-10-06T02:06:48.857Z,102124.60
2022-10-06T02:07:50.666Z,102120.25
2022-10-06T02:08:52.603Z,102115.91
2022-10-06T02:09:54.573Z,102113.30
2022-10-06T02:10:56.711Z,102108.05
2022-10-06T02:11:58.650Z,102118.52
2022-10-06T02:13:00.584Z,102108.05
2022-10-06T02:14:02.506Z,102108.05
2022-10-06T02:15:04.475Z,102109.78
2022-10-06T02:16:07.338Z,102103.66
2022-10-06T02:17:12.579Z,102102.80
2022-10-06T02:18:15.150Z,102105.39
2022-10-06T02:19:17.222Z,102108.00
2022-10-06T02:20:19.200Z,102108.00
2022-10-06T02:21:21.315Z,102108.00
2022-10-06T02:22:23.253Z,102096.75
2022-10-06T02:23:25.158Z,102102.84
2022-10-06T02:24:27.068Z,102098.49
2022-10-06T02:25:29.028Z,102094.19
2022-10-06T02:26:31.052Z,102096.80
2022-10-06T02:27:32.961Z,102106.36
2022-10-06T02:28:35.192Z,102101.14
2022-10-06T02:29:37.192Z,102099.41
2022-10-06T02:30:39.479Z,102105.48
2022-10-06T02:31:41.519Z,102101.22
2022-10-06T02:32:43.439Z,102105.53
2022-10-06T02:33:45.356Z,102101.14
2022-10-06T02:34:47.169Z,102102.05
2022-10-06T02:35:49.125Z,102107.27
2022-10-06T02:36:51.158Z,102101.14
2022-10-06T02:37:53.075Z,102103.75
2022-10-06T02:38:55.001Z,102105.48
2022-10-06T02:39:56.917Z,102097.63
2022-10-06T02:40:58.974Z,102097.63
2022-10-06T02:42:01.101Z,102099.36
2022-10-06T02:43:03.022Z,102104.52
2022-10-06T02:44:04.948Z,102100.14
2022-10-06T02:45:06.866Z,102098.41
2022-10-06T02:46:09.326Z,102098.41
2022-10-06T02:47:11.263Z,102102.75
2022-10-06T02:48:13.203Z,102096.70
2022-10-06T02:49:15.131Z,102107.95
2022-10-06T02:50:17.253Z,102106.22
2022-10-06T02:51:19.206Z,102110.56
2022-10-06T02:52:21.134Z,102106.22
2022-10-06T02:53:23.047Z,102111.39
2022-10-06T02:54:24.973Z,102109.64
2022-10-06T02:55:26.893Z,102106.13
2022-10-06T02:56:28.932Z,102112.25
2022-10-06T02:57:30.852Z,102111.34
2022-10-06T02:58:32.962Z,102116.56
2022-10-06T02:59:34.918Z,102115.69
2022-10-06T03:00:36.836Z,102116.56
2022-10-06T03:01:38.888Z,102117.42
2022-10-06T03:02:40.936Z,102110.48
2022-10-06T03:03:42.982Z,102119.16
2022-10-06T03:04:44.892Z,102121.77
2022-10-06T03:05:46.817Z,102121.77
2022-10-06T03:06:48.765Z,102122.63
2022-10-06T03:07:50.684Z,102123.50
2022-10-06T03:08:55.723Z,102117.38
2022-10-06T03:09:57.647Z,102122.59
2022-10-06T03:10:59.551Z,102126.02
2022-10-06T03:12:01.527Z,102122.54
2022-10-06T03:13:03.443Z,102118.16
2022-10-06T03:14:05.359Z,102132.01
2022-10-06T03:15:07.290Z,102132.91
2022-10-06T03:16:09.269Z,102132.88
2022-10-06T03:17:11.378Z,102135.47
2022-10-06T03:18:13.301Z,102143.30
2022-10-06T03:19:15.214Z,102147.55
2022-10-06T03:20:17.353Z,102149.28
2022-10-06T03:21:19.265Z,102142.30
2022-10-06T03:22:21.217Z,102154.45
2022-10-06T03:23:23.139Z,102148.36
2022-10-06T03:24:25.052Z,102148.36
2022-10-06T03:25:26.971Z,102156.13
2022-10-06T03:26:28.892Z,102155.27
2022-10-06T03:27:30.879Z,102157.83
2022-10-06T03:28:33.406Z,102157.83
2022-10-06T03:29:35.737Z,102156.95
2022-10-06T03:30:37.670Z,102156.95
2022-10-06T03:31:39.651Z,102154.36
2022-10-06T03:32:41.826Z,102158.66
2022-10-06T03:33:43.752Z,102155.17
2022-10-06T03:34:45.662Z,102154.30
2022-10-06T03:35:47.598Z,102156.91
2022-10-06T03:36:49.523Z,102165.55
2022-10-06T03:37:52.556Z,102161.22
2022-10-06T03:38:54.502Z,102153.40
2022-10-06T03:39:56.430Z,102155.13
2022-10-06T03:40:58.356Z,102155.95
2022-10-06T03:42:00.278Z,102152.43
2022-10-06T03:43:02.235Z,102152.43
2022-10-06T03:44:04.145Z,102152.43
2022-10-06T03:45:06.072Z,102157.59
2022-10-06T03:46:08.595Z,102156.72
2022-10-06T03:47:16.056Z,102153.21
2022-10-06T03:48:14.318Z,102155.81
2022-10-06T03:49:16.258Z,102148.00
2022-10-06T03:50:18.943Z,102149.69
2022-10-06T03:51:20.916Z,102138.39
2022-10-06T03:52:26.006Z,102143.60
2022-10-06T03:53:26.579Z,102141.83
2022-10-06T03:54:28.507Z,102146.16
2022-10-06T03:55:30.420Z,102142.65
2022-10-06T03:56:32.449Z,102149.64
2022-10-06T03:57:34.483Z,102147.86
2022-10-06T03:58:36.447Z,102151.38
2022-10-06T03:59:38.372Z,102153.06
2022-10-06T04:00:40.485Z,102149.59
2022-10-06T04:01:42.871Z,102142.65
2022-10-06T04:02:44.926Z,102146.98
2022-10-06T04:03:46.992Z,102145.20
2022-10-06T04:04:48.909Z,102140.86
2022-10-06T04:05:50.836Z,102145.16
2022-10-06T04:06:52.969Z,102144.28
2022-10-06T04:07:54.893Z,102139.91
2022-10-06T04:08:56.854Z,102138.20
2022-10-06T04:09:58.814Z,102135.59
2022-10-06T04:11:00.794Z,102145.16
2022-10-06T04:12:02.757Z,102137.34
2022-10-06T04:13:04.698Z,102141.73
2022-10-06T04:14:06.704Z,102149.54
2022-10-06T04:15:08.635Z,102148.72
2022-10-06T04:16:11.322Z,102148.72
2022-10-06T04:17:13.245Z,102153.02
2022-10-06T04:18:15.191Z,102145.20
2022-10-06T04:19:17.212Z,102148.72
2022-10-06T04:20:19.167Z,102144.33
2022-10-06T04:21:21.520Z,102149.59
2022-10-06T04:22:23.466Z,102153.92
2022-10-06T04:23:25.425Z,102153.92
2022-10-06T04:24:27.393Z,102157.41
2022-10-06T04:25:29.347Z,102150.47
2022-10-06T04:26:31.311Z,102157.41
2022-10-06T04:27:33.244Z,102160.05
2022-10-06T04:28:35.297Z,102159.19
2022-10-06T04:29:37.297Z,102158.33
2022-10-06T04:30:39.347Z,102166.14
2022-10-06T04:31:41.486Z,102156.63
2022-10-06T04:32:43.682Z,102154.89
2022-10-06T04:33:45.628Z,102162.75
2022-10-06T04:34:47.822Z,102155.81
2022-10-06T04:35:49.774Z,102159.33
2022-10-06T04:36:51.923Z,102167.14
2022-10-06T04:37:53.869Z,102164.58
2022-10-06T04:38:55.812Z,102160.25
2022-10-06T04:39:57.810Z,102163.77
2022-10-06T04:40:59.757Z,102162.90
2022-10-06T04:42:01.699Z,102156.86
2022-10-06T04:43:03.670Z,102159.52
2022-10-06T04:44:05.614Z,102159.52
2022-10-06T04:45:07.610Z,102163.87
2022-10-06T04:46:37.723Z,102164.77
2022-10-06T04:47:13.956Z,102167.38
2022-10-06T04:48:15.906Z,102168.25
2022-10-06T04:49:20.404Z,102163.99
2022-10-06T04:50:21.840Z,102162.31
2022-10-06T04:51:23.919Z,102165.79
2022-10-06T04:52:25.876Z,102167.61
2022-10-06T04:53:27.816Z,102169.39
2022-10-06T04:54:33.507Z,102171.14
2022-10-06T04:55:33.586Z,102162.49
2022-10-06T04:56:35.534Z,102170.36
2022-10-06T04:57:37.493Z,102170.41
2022-10-06T04:58:39.581Z,102171.33
2022-10-06T04:59:41.531Z,102168.77
2022-10-06T05:00:43.494Z,102174.02
2022-10-06T05:01:45.626Z,102172.37
2022-10-06T05:02:47.725Z,102172.41
2022-10-06T05:03:49.668Z,102173.29
2022-10-06T05:04:51.625Z,102162.91
2022-10-06T05:05:53.643Z,102161.26
2022-10-06T05:06:55.599Z,102168.22
2022-10-06T05:07:57.559Z,102171.77
2022-10-06T05:08:59.492Z,102159.66
2022-10-06T05:10:01.456Z,102164.92
2022-10-06T05:11:03.437Z,102164.92
2022-10-06T05:12:05.385Z,102170.22
2022-10-06T05:13:07.356Z,102170.27
2022-10-06T05:14:09.281Z,102170.30
2022-10-06T05:15:11.030Z,102173.87
2022-10-06T05:16:13.093Z,102173.87
2022-10-06T05:17:15.080Z,102168.70
2022-10-06T05:18:17.030Z,102173.91
2022-10-06T05:19:18.983Z,102173.95
2022-10-06T05:20:20.934Z,102177.52
2022-10-06T05:21:23.023Z,102175.78
2022-10-06T05:22:24.961Z,102176.73
2022-10-06T05:23:26.901Z,102175.87
2022-10-06T05:24:28.856Z,102176.77
2022-10-06T05:25:30.789Z,102175.08
2022-10-06T05:26:32.804Z,102176.86
2022-10-06T05:27:34.768Z,102171.69
2022-10-06T05:28:36.775Z,102174.30
2022-10-06T05:29:38.887Z,102172.61
2022-10-06T05:30:40.858Z,102174.39
2022-10-06T05:31:42.913Z,102174.43
2022-10-06T05:32:45.000Z,102169.22
2022-10-06T05:33:46.934Z,102170.96
2022-10-06T05:34:48.909Z,102174.47
2022-10-06T05:35:50.862Z,102171.91
2022-10-06T05:36:52.904Z,102176.55
2022-10-06T05:37:54.889Z,102170.23
2022-10-06T05:38:56.828Z,102174.39
2022-10-06T05:39:58.809Z,102174.98
2022-10-06T05:41:00.770Z,102180.79
2022-10-06T05:42:02.785Z,102167.29
2022-10-06T05:43:04.763Z,102170.28
2022-10-06T05:44:06.746Z,102166.27
2022-10-06T05:45:08.699Z,102165.76
2022-10-06T05:46:11.294Z,102166.95
2022-10-06T05:47:13.320Z,102167.23
2022-10-06T05:48:15.277Z,102174.48
2022-10-06T05:49:17.281Z,102157.24
2022-10-06T05:50:20.748Z,102161.83
2022-10-06T05:51:25.616Z,102163.77
2022-10-06T05:52:26.928Z,102163.94
2022-10-06T05:53:28.893Z,102161.50
2022-10-06T05:54:30.848Z,102160.73
2022-10-06T05:55:32.810Z,102159.98
2022-10-06T05:56:34.745Z,102162.71
2022-10-06T05:57:36.732Z,102154.95
2022-10-06T05:58:38.695Z,102158.56
2022-10-06T05:59:40.658Z,102163.93
2022-10-06T06:00:42.741Z,102158.81
2022-10-06T06:01:44.777Z,102158.01
2022-10-06T06:02:47.051Z,102163.31
2022-10-06T06:03:49.059Z,102161.64
2022-10-06T06:04:51.015Z,102167.80
2022-10-06T06:05:52.983Z,102170.47
2022-10-06T06:06:54.961Z,102167.03
2022-10-06T06:07:57.018Z,102164.46
2022-10-06T06:08:58.986Z,102162.77
2022-10-06T06:10:00.948Z,102167.23
2022-10-06T06:11:02.891Z,102167.30
2022-10-06T06:12:04.839Z,102170.88
2022-10-06T06:13:06.829Z,102164.81
2022-10-06T06:14:08.809Z,102171.00
2022-10-06T06:15:10.776Z,102173.72
2022-10-06T06:16:13.372Z,102169.40
2022-10-06T06:17:15.507Z,102172.09
2022-10-06T06:18:17.598Z,102166.91
2022-10-06T06:19:19.566Z,102170.52
2022-10-06T06:20:21.648Z,102171.53
2022-10-06T06:21:23.616Z,102168.15
2022-10-06T06:22:25.576Z,102176.13
2022-10-06T06:23:27.668Z,102167.45
2022-10-06T06:24:29.613Z,102171.89
2022-10-06T06:25:31.590Z,102166.70
2022-10-06T06:26:33.698Z,102171.98
2022-10-06T06:27:35.588Z,102169.37
2022-10-06T06:28:37.615Z,102174.66
2022-10-06T06:29:39.595Z,102174.68
2022-10-06T06:30:41.693Z,102175.56
2022-10-06T06:31:43.707Z,102181.75
2022-10-06T06:32:45.698Z,102173.02
2022-10-06T06:33:47.648Z,102173.89
2022-10-06T06:34:49.591Z,102171.28
2022-10-06T06:35:51.519Z,102172.15
2022-10-06T06:36:53.701Z,102173.05
2022-10-06T06:37:55.588Z,102175.69
2022-10-06T06:38:57.580Z,102172.16
2022-10-06T06:39:59.600Z,102169.55
2022-10-06T06:41:01.528Z,102173.08
2022-10-06T06:42:03.598Z,102175.72
2022-10-06T06:43:05.584Z,102170.47
2022-10-06T06:44:07.544Z,102177.44
2022-10-06T06:45:09.379Z,102173.96
2022-10-06T06:46:12.033Z,102171.33
2022-10-06T06:47:14.181Z,102172.19
2022-10-06T06:48:16.265Z,102168.69
2022-10-06T06:49:18.141Z,102171.32
2022-10-06T06:50:20.181Z,102177.45
2022-10-06T06:51:22.113Z,102174.84
2022-10-06T06:52:24.049Z,102179.24
2022-10-06T06:53:25.976Z,102173.98
2022-10-06T06:54:28.021Z,102174.00
2022-10-06T06:55:29.956Z,102174.87
2022-10-06T06:56:32.006Z,102175.78
2022-10-06T06:57:33.939Z,102173.16
2022-10-06T06:58:35.860Z,102174.03
2022-10-06T06:59:37.957Z,102175.80
2022-10-06T07:00:39.880Z,102174.95
2022-10-06T07:01:41.983Z,102171.43
2022-10-06T07:02:44.073Z,102169.70
2022-10-06T07:03:57.022Z,102168.81
2022-10-06T07:04:49.809Z,102167.09
2022-10-06T07:05:51.741Z,102168.81
2022-10-06T07:06:53.694Z,102168.83
2022-10-06T07:07:55.839Z,102164.47
2022-10-06T07:08:57.784Z,102165.33
2022-10-06T07:09:59.864Z,102174.05
2022-10-06T07:11:01.796Z,102169.61
2022-10-06T07:12:03.770Z,102173.96
2022-10-06T07:13:05.672Z,102172.15
2022-10-06T07:14:07.601Z,102166.86
2022-10-06T07:15:09.631Z,102169.44
2022-10-06T07:16:11.724Z,102172.89
2022-10-06T07:17:13.655Z,102167.60
2022-10-06T07:18:15.601Z,102164.92
2022-10-06T07:19:20.183Z,102166.64
2022-10-06T07:20:21.344Z,102168.34
2022-10-06T07:21:23.318Z,102170.92
2022-10-06T07:22:25.238Z,102169.15
2022-10-06T07:23:27.168Z,102170.84
2022-10-06T07:24:29.104Z,102167.30
2022-10-06T07:25:31.097Z,102163.73
2022-10-06T07:26:33.030Z,102167.22
2022-10-06T07:27:34.965Z,102167.16
2022-10-06T07:28:36.942Z,102168.00
2022-10-06T07:29:38.835Z,102167.11
2022-10-06T07:30:41.183Z,102167.05
2022-10-06T07:31:43.274Z,102165.23
2022-10-06T07:32:45.181Z,102164.31
2022-10-06T07:33:47.125Z,102169.53
2022-10-06T07:34:49.058Z,102167.77
2022-10-06T07:35:51.005Z,102165.13
2022-10-06T07:36:52.928Z,102169.45
2022-10-06T07:37:54.857Z,102167.70
2022-10-06T07:38:56.766Z,102164.17
2022-10-06T07:39:58.700Z,102166.77
2022-10-06T07:41:18.948Z,102166.73
2022-10-06T07:42:04.592Z,102160.60
2022-10-06T07:43:06.537Z,102166.70
2022-10-06T07:44:08.491Z,102162.28
2022-10-06T07:45:10.415Z,102162.28
2022-10-06T07:46:12.846Z,102168.39
2022-10-06T07:47:14.747Z,102164.87
2022-10-06T07:48:16.770Z,102163.98
2022-10-06T07:49:18.675Z,102161.34
2022-10-06T07:50:21.081Z,102158.70
2022-10-06T07:51:23.053Z,102156.91
2022-10-06T07:52:24.986Z,102155.16
2022-10-06T07:53:26.961Z,102155.13
2022-10-06T07:54:28.893Z,102152.48
2022-10-06T07:55:30.872Z,102155.94
2022-10-06T07:56:32.873Z,102154.16
2022-10-06T07:57:34.801Z,102156.77
2022-10-06T07:58:36.816Z,102159.39
2022-10-06T07:59:38.829Z,102159.36
2022-10-06T08:00:40.786Z,102154.97
2022-10-06T08:01:42.793Z,102159.34
2022-10-06T08:02:44.682Z,102152.33
2022-10-06T08:03:46.701Z,102153.21
2022-10-06T08:04:48.628Z,102157.55
2022-10-06T08:05:50.598Z,102146.17
2022-10-06T08:06:52.588Z,102150.55
2022-10-06T08:07:54.505Z,102147.91
2022-10-06T08:08:56.497Z,102146.13
2022-10-06T08:09:58.500Z,102147.88
2022-10-06T08:11:01.779Z,102147.88
2022-10-06T08:12:04.100Z,102150.50
2022-10-06T08:13:06.042Z,102147.88
2022-10-06T08:14:07.951Z,102142.64
2022-10-06T08:15:09.874Z,102142.64
2022-10-06T08:16:12.776Z,102143.48
2022-10-06T08:17:14.789Z,102139.99
2022-10-06T08:18:41.123Z,102144.38
2022-10-06T08:19:20.532Z,102139.13
2022-10-06T08:20:22.571Z,102139.11
2022-10-06T08:21:24.497Z,102141.73
2022-10-06T08:22:26.479Z,102142.64
2022-10-06T08:23:28.417Z,102140.03
2022-10-06T08:24:37.884Z,102135.66
2022-10-06T08:25:34.130Z,102138.28
2022-10-06T08:26:36.358Z,102138.28
2022-10-06T08:27:38.363Z,102140.03
2022-10-06T08:28:40.387Z,102128.66
2022-10-06T08:29:42.350Z,102133.93
2022-10-06T08:30:44.277Z,102131.33
2022-10-06T08:31:46.284Z,102131.35
2022-10-06T08:32:48.755Z,102130.48
2022-10-06T08:33:50.796Z,102133.95
2022-10-06T08:34:53.107Z,102129.63
2022-10-06T08:35:55.206Z,102132.27
2022-10-06T08:37:18.705Z,102129.63
2022-10-06T08:38:01.123Z,102130.52
2022-10-06T08:39:03.094Z,102128.75
2022-10-06T08:40:05.429Z,102129.63
2022-10-06T08:41:07.910Z,102129.63
2022-10-06T08:42:09.896Z,102127.86
2022-10-06T08:43:11.954Z,102127.86
2022-10-06T08:44:13.897Z,102127.88
2022-10-06T08:45:15.901Z,102132.27
2022-10-06T08:46:19.943Z,102131.37
2022-10-06T08:47:21.638Z,102131.42
2022-10-06T08:48:23.607Z,102132.30
2022-10-06T08:49:25.653Z,102133.16
2022-10-06T08:50:27.649Z,102130.54
2022-10-06T08:51:29.659Z,102124.45
2022-10-06T08:52:31.597Z,102121.83
2022-10-06T08:53:33.628Z,102123.61
2022-10-06T08:54:35.605Z,102122.73
2022-10-06T08:55:37.558Z,102126.25
2022-10-06T08:56:39.528Z,102122.75
2022-10-06T08:57:41.470Z,102123.66
2022-10-06T08:59:56.642Z,102119.41
2022-10-06T09:00:58.851Z,102127.12
2022-10-06T09:02:00.857Z,102123.66
2022-10-06T09:03:02.926Z,102121.92
2022-10-06T09:04:04.891Z,102119.33
2022-10-06T09:05:06.884Z,102132.47
2022-10-06T09:06:10.141Z,102126.38
2022-10-06T09:07:12.092Z,102125.48
2022-10-06T09:08:14.049Z,102126.39
2022-10-06T09:09:16.172Z,102129.02
2022-10-06T09:10:18.516Z,102125.52
2022-10-06T09:11:20.565Z,102123.80
2022-10-06T09:12:22.551Z,102128.14
2022-10-06T09:13:24.535Z,102124.66
2022-10-06T09:14:26.666Z,102129.07
2022-10-06T09:15:28.618Z,102129.95
2022-10-06T09:16:30.609Z,102125.61
2022-10-06T09:17:32.494Z,102125.61
2022-10-06T09:18:49.790Z,102126.48
2022-10-06T09:19:38.222Z,102123.88
2022-10-06T09:20:40.206Z,102127.39
2022-10-06T09:21:42.158Z,102121.29
2022-10-06T09:22:44.137Z,102124.78
2022-10-06T09:23:46.090Z,102125.69
2022-10-06T09:24:48.037Z,102125.70
2022-10-06T09:25:50.058Z,102118.70
2022-10-06T09:26:52.008Z,102118.70
2022-10-06T09:27:53.957Z,102118.73
2022-10-06T09:28:55.908Z,102114.34
2022-10-06T09:29:58.362Z,102113.48
2022-10-06T09:31:00.624Z,102112.63
2022-10-06T09:32:02.613Z,102109.09
2022-10-06T09:33:04.585Z,102113.51
2022-10-06T09:34:06.526Z,102110.03
2022-10-06T09:35:08.476Z,102110.91
2022-10-06T09:36:11.088Z,102103.06
2022-10-06T09:37:13.028Z,102103.93
2022-10-06T09:38:14.992Z,102096.96
2022-10-06T09:39:17.008Z,102098.70
2022-10-06T09:40:19.027Z,102107.48
2022-10-06T09:41:21.332Z,102102.22
2022-10-06T09:42:23.338Z,102102.24
2022-10-06T09:43:25.267Z,102097.02
2022-10-06T09:44:27.229Z,102097.89
2022-10-06T09:45:29.340Z,102102.29
2022-10-06T09:46:31.409Z,102102.36
2022-10-06T09:47:33.370Z,102104.11
2022-10-06T09:48:35.518Z,102101.50
2022-10-06T09:49:37.487Z,102104.11
2022-10-06T09:50:39.530Z,102106.73
2022-10-06T09:51:41.632Z,102103.20
2022-10-06T09:52:43.581Z,102104.11
2022-10-06T09:53:45.529Z,102101.44
2022-10-06T09:54:47.481Z,102111.98
2022-10-06T09:55:49.433Z,102105.83
2022-10-06T09:56:51.509Z,102104.93
2022-10-06T09:57:53.475Z,102098.81
2022-10-06T09:58:55.721Z,102100.58
2022-10-06T09:59:58.284Z,102102.36
2022-10-06T10:01:00.748Z,102109.39
2022-10-06T10:02:02.806Z,102106.77
2022-10-06T10:03:04.826Z,102096.28
2022-10-06T10:04:20.081Z,102098.02
2022-10-06T10:05:10.684Z,102098.02
2022-10-06T10:06:13.455Z,102099.81
2022-10-06T10:08:43.134Z,102093.69
2022-10-06T10:09:45.073Z,102083.20
2022-10-06T10:10:47.439Z,102091.95
2022-10-06T10:11:49.414Z,102093.70
2022-10-06T10:12:51.420Z,102083.20
2022-10-06T10:13:53.369Z,102091.06
2022-10-06T10:14:55.549Z,102089.30
2022-10-06T10:15:57.469Z,102087.53
2022-10-06T10:17:00.089Z,102085.80
2022-10-06T10:18:02.079Z,102086.67
2022-10-06T10:19:05.158Z,102080.55
2022-10-06T10:20:08.107Z,102083.17
2022-10-06T10:21:10.059Z,102081.42
2022-10-06T10:22:11.997Z,102079.65
2022-10-06T10:23:13.970Z,102082.29
2022-10-06T10:24:17.127Z,102080.58
2022-10-06T10:25:19.036Z,102076.20
2022-10-06T10:26:21.082Z,102073.59
2022-10-06T10:27:23.011Z,102078.84
2022-10-06T10:28:25.024Z,102071.84
2022-10-06T10:29:30.543Z,102073.63
2022-10-06T10:30:30.670Z,102071.01
2022-10-06T10:31:32.678Z,102073.63
2022-10-06T10:32:34.684Z,102064.88
2022-10-06T10:33:36.661Z,102065.77
2022-10-06T10:34:38.576Z,102068.39
2022-10-06T10:35:40.527Z,102064.91
2022-10-06T10:36:42.459Z,102066.67
2022-10-06T10:37:44.394Z,102068.41
2022-10-06T10:38:46.386Z,102068.39
2022-10-06T10:39:48.286Z,102075.42
2022-10-06T10:40:50.254Z,102062.29
2022-10-06T10:41:52.410Z,102060.52
2022-10-06T10:42:54.986Z,102067.53
2022-10-06T10:43:59.620Z,102064.03
2022-10-06T10:45:00.813Z,102064.03
2022-10-06T10:46:02.784Z,102064.03
2022-10-06T10:47:04.737Z,102065.76
2022-10-06T10:48:06.692Z,102067.53
2022-10-06T10:49:08.651Z,102062.28
2022-10-06T10:50:10.989Z,102068.39
2022-10-06T10:51:12.913Z,102059.66
2022-10-06T10:52:14.864Z,102069.30
2022-10-06T10:54:18.801Z,102057.88
2022-10-06T10:55:20.780Z,102062.28
2022-10-06T10:56:22.853Z,102060.52
2022-10-06T10:57:24.733Z,102065.77
2022-10-06T10:58:27.047Z,102065.77
2022-10-06T10:59:29.256Z,102060.52
2022-10-06T11:00:31.308Z,102066.66
2022-10-06T11:01:33.297Z,102068.38
2022-10-06T11:02:35.184Z,102057.88
2022-10-06T11:03:37.266Z,102063.13
2022-10-06T11:04:39.233Z,102059.63
2022-10-06T11:05:41.162Z,102058.73
2022-10-06T11:06:43.097Z,102054.38
2022-10-06T11:07:45.080Z,102055.24
2022-10-06T11:08:47.006Z,102048.22
2022-10-06T11:09:49.015Z,102055.23
2022-10-06T11:10:50.947Z,102049.98
2022-10-06T11:11:52.878Z,102052.60
2022-10-06T11:12:54.863Z,102050.84
2022-10-06T11:13:56.801Z,102051.75
2022-10-06T11:14:59.094Z,102048.22
2022-10-06T11:16:01.612Z,102049.12
2022-10-06T11:17:03.665Z,102046.52
2022-10-06T11:18:05.647Z,102048.23
2022-10-06T11:19:07.630Z,102048.23
2022-10-06T11:20:09.733Z,102050.86
2022-10-06T11:21:11.708Z,102050.00
2022-10-06T11:22:13.690Z,102056.11
2022-10-06T11:23:15.643Z,102047.37
2022-10-06T11:24:17.579Z,102036.00
2022-10-06T11:25:19.600Z,102048.23
2022-10-06T11:26:21.541Z,102038.64
2022-10-06T11:27:23.500Z,102050.91
2022-10-06T11:28:25.642Z,102052.63
2022-10-06T11:29:27.710Z,102030.73
2022-10-06T11:30:29.778Z,102034.26
2022-10-06T11:31:31.755Z,102032.48
2022-10-06T11:32:33.712Z,102043.89
2022-10-06T11:33:35.857Z,102043.89
2022-10-06T11:34:37.925Z,102047.38
2022-10-06T11:35:40.186Z,102041.28
2022-10-06T11:36:42.240Z,102037.78
2022-10-06T11:37:44.182Z,102037.78
2022-10-06T11:38:46.143Z,102034.26
2022-10-06T11:39:48.082Z,102037.78
2022-10-06T11:40:50.068Z,102036.03
2022-10-06T11:41:52.036Z,102036.03
2022-10-06T11:42:53.994Z,102037.78
2022-10-06T11:43:55.957Z,102036.87
2022-10-06T11:44:58.284Z,102029.01
2022-10-06T11:46:00.470Z,102036.02
2022-10-06T11:47:02.464Z,102033.39
2022-10-06T11:48:04.421Z,102034.24
2022-10-06T11:49:06.386Z,102032.48
2022-10-06T11:50:08.525Z,102026.37
2022-10-06T11:51:10.554Z,102032.47
2022-10-06T11:52:12.525Z,102029.84